sensor_id;sensor_type;location;lat;lon;timestamp;pressure;altitude;pressure_sealevel;temperature;humidity
40730;BME280;26418;50.070;8.436;2022-07-22T00:01:13;100427.66;;;19.29;68.77
40730;BME280;26418;50.070;8.436;2022-07-22T00:03:38;100432.69;;;19.27;69.17
40730;BME280;26418;50.070;8.436;2022-07-22T00:06:04;100431.81;;;19.23;69.25
40730;BME280;26418;50.070;8.436;2022-07-22T00:08:29;100419.13;;;19.18;69.31
40730;BME280;26418;50.070;8.436;2022-07-22T00:10:55;100414.91;;;19.21;69.39
40730;BME280;26418;50.070;8.436;2022-07-22T00:13:20;100426.22;;;19.19;69.34
40730;BME280;26418;50.070;8.436;2022-07-22T00:15:46;100427.81;;;19.20;69.44
40730;BME280;26418;50.070;8.436;2022-07-22T00:18:12;100424.50;;;19.14;69.45
40730;BME280;26418;50.070;8.436;2022-07-22T00:20:38;100414.84;;;19.05;69.69
40730;BME280;26418;50.070;8.436;2022-07-22T00:23:03;100413.13;;;19.00;69.74
40730;BME280;26418;50.070;8.436;2022-07-22T00:25:29;100421.78;;;19.02;69.81
40730;BME280;26418;50.070;8.436;2022-07-22T00:27:54;100430.00;;;19.02;69.89
40730;BME280;26418;50.070;8.436;2022-07-22T00:30:20;100430.34;;;19.00;70.03
40730;BME280;26418;50.070;8.436;2022-07-22T00:32:46;100418.50;;;18.96;70.01
40730;BME280;26418;50.070;8.436;2022-07-22T00:35:11;100412.66;;;18.98;70.19
40730;BME280;26418;50.070;8.436;2022-07-22T00:37:37;100420.44;;;18.96;70.01
40730;BME280;26418;50.070;8.436;2022-07-22T00:40:04;100409.34;;;18.92;70.30
40730;BME280;26418;50.070;8.436;2022-07-22T00:42:29;100416.75;;;18.92;70.35
40730;BME280;26418;50.070;8.436;2022-07-22T00:44:55;100393.94;;;18.75;70.58
40730;BME280;26418;50.070;8.436;2022-07-22T00:47:20;100410.25;;;18.84;70.72
40730;BME280;26418;50.070;8.436;2022-07-22T00:49:46;100410.94;;;18.81;71.06
40730;BME280;26418;50.070;8.436;2022-07-22T00:52:12;100410.16;;;18.80;71.25
40730;BME280;26418;50.070;8.436;2022-07-22T00:54:38;100411.19;;;18.76;71.23
40730;BME280;26418;50.070;8.436;2022-07-22T00:57:03;100402.06;;;18.72;71.26
40730;BME280;26418;50.070;8.436;2022-07-22T00:59:30;100407.88;;;18.82;70.79
40730;BME280;26418;50.070;8.436;2022-07-22T01:01:55;100401.25;;;18.83;70.69
40730;BME280;26418;50.070;8.436;2022-07-22T01:04:21;100396.09;;;18.82;70.72
40730;BME280;26418;50.070;8.436;2022-07-22T01:06:47;100391.88;;;18.72;70.81
40730;BME280;26418;50.070;8.436;2022-07-22T01:09:13;100404.81;;;18.72;70.71
40730;BME280;26418;50.070;8.436;2022-07-22T01:11:39;100412.56;;;18.69;71.30
40730;BME280;26418;50.070;8.436;2022-07-22T01:14:05;100410.59;;;18.70;70.78
40730;BME280;26418;50.070;8.436;2022-07-22T01:16:30;100408.31;;;18.72;71.14
40730;BME280;26418;50.070;8.436;2022-07-22T01:18:56;100411.06;;;18.72;71.06
40730;BME280;26418;50.070;8.436;2022-07-22T01:21:21;100403.88;;;18.67;70.89
40730;BME280;26418;50.070;8.436;2022-07-22T01:23:47;100405.94;;;18.58;71.05
40730;BME280;26418;50.070;8.436;2022-07-22T01:26:13;100409.47;;;18.59;71.24
40730;BME280;26418;50.070;8.436;2022-07-22T01:28:40;100407.53;;;18.59;71.41
40730;BME280;26418;50.070;8.436;2022-07-22T01:31:05;100419.28;;;18.60;71.55
40730;BME280;26418;50.070;8.436;2022-07-22T01:33:31;100411.41;;;18.58;71.37
40730;BME280;26418;50.070;8.436;2022-07-22T01:35:56;100410.38;;;18.63;71.44
40730;BME280;26418;50.070;8.436;2022-07-22T01:38:22;100403.66;;;18.60;71.49
40730;BME280;26418;50.070;8.436;2022-07-22T01:40:47;100403.06;;;18.54;71.57
40730;BME280;26418;50.070;8.436;2022-07-22T01:43:13;100402.28;;;18.54;71.82
40730;BME280;26418;50.070;8.436;2022-07-22T01:45:44;100404.34;;;18.45;71.73
40730;BME280;26418;50.070;8.436;2022-07-22T01:48:10;100404.34;;;18.45;71.61
40730;BME280;26418;50.070;8.436;2022-07-22T01:50:35;100400.22;;;18.38;72.25
40730;BME280;26418;50.070;8.436;2022-07-22T01:53:01;100404.91;;;18.38;72.26
40730;BME280;26418;50.070;8.436;2022-07-22T01:55:26;100403.53;;;18.32;71.99
40730;BME280;26418;50.070;8.436;2022-07-22T01:57:51;100399.31;;;18.34;72.10
40730;BME280;26418;50.070;8.436;2022-07-22T02:00:17;100408.00;;;18.36;72.15
40730;BME280;26418;50.070;8.436;2022-07-22T02:02:43;100392.91;;;18.30;72.32
40730;BME280;26418;50.070;8.436;2022-07-22T02:05:08;100395.31;;;18.32;72.30
40730;BME280;26418;50.070;8.436;2022-07-22T02:07:34;100410.63;;;18.33;72.06
40730;BME280;26418;50.070;8.436;2022-07-22T02:09:59;100407.75;;;18.29;72.42
40730;BME280;26418;50.070;8.436;2022-07-22T02:12:25;100404.44;;;18.23;72.32
40730;BME280;26418;50.070;8.436;2022-07-22T02:14:51;100402.03;;;18.22;72.45
40730;BME280;26418;50.070;8.436;2022-07-22T02:17:16;100393.03;;;18.21;72.32
40730;BME280;26418;50.070;8.436;2022-07-22T02:19:42;100400.66;;;18.16;72.33
40730;BME280;26418;50.070;8.436;2022-07-22T02:22:08;100406.94;;;18.16;72.32
40730;BME280;26418;50.070;8.436;2022-07-22T02:24:33;100408.50;;;18.17;72.48
40730;BME280;26418;50.070;8.436;2022-07-22T02:37:44;100396.50;;;17.97;72.24
40730;BME280;26418;50.070;8.436;2022-07-22T02:40:10;100402.31;;;17.96;72.04
40730;BME280;26418;50.070;8.436;2022-07-22T02:42:36;100406.66;;;17.97;72.18
40730;BME280;26418;50.070;8.436;2022-07-22T02:45:02;100421.13;;;17.97;72.44
40730;BME280;26418;50.070;8.436;2022-07-22T02:47:28;100416.00;;;17.96;72.59
40730;BME280;26418;50.070;8.436;2022-07-22T02:49:54;100419.84;;;17.95;72.60
40730;BME280;26418;50.070;8.436;2022-07-22T02:52:19;100408.91;;;17.95;72.65
40730;BME280;26418;50.070;8.436;2022-07-22T02:54:45;100412.34;;;17.91;72.46
40730;BME280;26418;50.070;8.436;2022-07-22T02:57:10;100415.75;;;17.88;72.55
40730;BME280;26418;50.070;8.436;2022-07-22T02:59:36;100415.97;;;17.83;72.67
40730;BME280;26418;50.070;8.436;2022-07-22T03:02:02;100414.78;;;17.84;72.91
40730;BME280;26418;50.070;8.436;2022-07-22T03:04:27;100408.53;;;17.84;73.04
40730;BME280;26418;50.070;8.436;2022-07-22T03:06:53;100413.66;;;17.85;72.78
40730;BME280;26418;50.070;8.436;2022-07-22T03:09:18;100417.69;;;17.88;72.88
40730;BME280;26418;50.070;8.436;2022-07-22T03:11:44;100416.09;;;17.87;72.73
40730;BME280;26418;50.070;8.436;2022-07-22T03:14:10;100417.88;;;17.83;72.96
40730;BME280;26418;50.070;8.436;2022-07-22T03:16:38;100414.91;;;17.75;73.20
40730;BME280;26418;50.070;8.436;2022-07-22T03:19:04;100415.25;;;17.74;73.28
40730;BME280;26418;50.070;8.436;2022-07-22T03:21:29;100420.25;;;17.72;73.51
40730;BME280;26418;50.070;8.436;2022-07-22T03:23:55;100417.84;;;17.70;73.64
40730;BME280;26418;50.070;8.436;2022-07-22T03:26:21;100430.25;;;17.68;73.63
40730;BME280;26418;50.070;8.436;2022-07-22T03:28:47;100427.50;;;17.68;73.58
40730;BME280;26418;50.070;8.436;2022-07-22T03:31:13;100434.72;;;17.72;73.57
40730;BME280;26418;50.070;8.436;2022-07-22T03:33:39;100434.28;;;17.70;73.88
40730;BME280;26418;50.070;8.436;2022-07-22T03:36:04;100426.63;;;17.76;74.89
40730;BME280;26418;50.070;8.436;2022-07-22T03:38:36;100427.34;;;17.85;74.13
40730;BME280;26418;50.070;8.436;2022-07-22T03:41:03;100419.38;;;17.92;73.11
40730;BME280;26418;50.070;8.436;2022-07-22T03:43:29;100421.94;;;17.98;72.97
40730;BME280;26418;50.070;8.436;2022-07-22T03:45:54;100412.72;;;18.02;72.71
40730;BME280;26418;50.070;8.436;2022-07-22T03:48:21;100420.59;;;18.04;72.66
40730;BME280;26418;50.070;8.436;2022-07-22T03:50:46;100416.94;;;18.00;72.51
40730;BME280;26418;50.070;8.436;2022-07-22T03:53:12;100421.25;;;18.01;72.21
40730;BME280;26418;50.070;8.436;2022-07-22T03:55:37;100422.75;;;17.98;72.84
40730;BME280;26418;50.070;8.436;2022-07-22T03:58:03;100416.00;;;17.96;72.49
40730;BME280;26418;50.070;8.436;2022-07-22T04:00:29;100416.31;;;17.94;72.44
40730;BME280;26418;50.070;8.436;2022-07-22T04:02:54;100418.94;;;17.90;72.44
40730;BME280;26418;50.070;8.436;2022-07-22T04:05:20;100411.16;;;17.92;72.17
40730;BME280;26418;50.070;8.436;2022-07-22T04:07:45;100416.66;;;17.92;72.31
40730;BME280;26418;50.070;8.436;2022-07-22T04:10:11;100417.81;;;17.91;73.16
40730;BME280;26418;50.070;8.436;2022-07-22T04:12:39;100416.66;;;17.92;73.72
40730;BME280;26418;50.070;8.436;2022-07-22T04:15:06;100408.28;;;17.98;73.71
40730;BME280;26418;50.070;8.436;2022-07-22T04:17:35;100406.56;;;18.05;73.46
40730;BME280;26418;50.070;8.436;2022-07-22T04:25:05;100398.03;;;18.07;73.09
40730;BME280;26418;50.070;8.436;2022-07-22T04:27:31;100403.63;;;18.11;72.44
40730;BME280;26418;50.070;8.436;2022-07-22T04:29:57;100391.41;;;18.08;72.69
40730;BME280;26418;50.070;8.436;2022-07-22T04:32:22;100383.66;;;18.10;72.67
40730;BME280;26418;50.070;8.436;2022-07-22T04:34:47;100380.59;;;18.12;72.31
40730;BME280;26418;50.070;8.436;2022-07-22T04:37:13;100384.69;;;18.18;72.83
40730;BME280;26418;50.070;8.436;2022-07-22T04:39:38;100390.28;;;18.21;71.95
40730;BME280;26418;50.070;8.436;2022-07-22T04:42:04;100387.66;;;18.13;71.77
40730;BME280;26418;50.070;8.436;2022-07-22T04:44:30;100390.72;;;18.11;72.27
40730;BME280;26418;50.070;8.436;2022-07-22T04:46:55;100390.53;;;18.16;72.46
40730;BME280;26418;50.070;8.436;2022-07-22T04:49:20;100394.63;;;18.22;72.39
40730;BME280;26418;50.070;8.436;2022-07-22T04:51:46;100393.50;;;18.23;72.22
40730;BME280;26418;50.070;8.436;2022-07-22T04:54:11;100391.41;;;18.20;71.96
40730;BME280;26418;50.070;8.436;2022-07-22T04:56:37;100397.72;;;18.21;72.01
40730;BME280;26418;50.070;8.436;2022-07-22T04:59:02;100396.44;;;18.18;71.91
40730;BME280;26418;50.070;8.436;2022-07-22T05:01:28;100391.41;;;18.20;72.20
40730;BME280;26418;50.070;8.436;2022-07-22T05:03:53;100392.00;;;18.26;71.78
40730;BME280;26418;50.070;8.436;2022-07-22T05:06:19;100380.25;;;18.26;71.96
40730;BME280;26418;50.070;8.436;2022-07-22T05:08:44;100405.56;;;18.35;71.35
40730;BME280;26418;50.070;8.436;2022-07-22T05:11:10;100392.13;;;18.42;71.28
40730;BME280;26418;50.070;8.436;2022-07-22T05:13:35;100391.53;;;18.49;70.69
40730;BME280;26418;50.070;8.436;2022-07-22T05:16:05;100395.53;;;18.51;70.50
40730;BME280;26418;50.070;8.436;2022-07-22T05:18:30;100392.78;;;18.51;70.36
40730;BME280;26418;50.070;8.436;2022-07-22T05:20:56;100396.09;;;18.57;70.14
40730;BME280;26418;50.070;8.436;2022-07-22T05:23:22;100404.91;;;18.63;69.86
40730;BME280;26418;50.070;8.436;2022-07-22T05:25:47;100402.16;;;18.63;69.67
40730;BME280;26418;50.070;8.436;2022-07-22T05:28:12;100410.38;;;18.75;69.02
40730;BME280;26418;50.070;8.436;2022-07-22T05:30:38;100405.81;;;18.79;69.27
40730;BME280;26418;50.070;8.436;2022-07-22T05:33:03;100410.59;;;18.82;68.89
40730;BME280;26418;50.070;8.436;2022-07-22T05:35:29;100401.94;;;18.80;68.60
40730;BME280;26418;50.070;8.436;2022-07-22T05:37:54;100404.00;;;18.83;68.73
40730;BME280;26418;50.070;8.436;2022-07-22T05:40:20;100407.16;;;18.85;68.66
40730;BME280;26418;50.070;8.436;2022-07-22T05:42:45;100398.03;;;18.81;67.32
40730;BME280;26418;50.070;8.436;2022-07-22T05:45:11;100361.22;;;18.54;67.92
40730;BME280;26418;50.070;8.436;2022-07-22T05:47:36;100402.13;;;18.88;67.80
40730;BME280;26418;50.070;8.436;2022-07-22T05:50:02;100414.34;;;18.90;68.12
40730;BME280;26418;50.070;8.436;2022-07-22T05:52:28;100409.56;;;18.87;67.78
40730;BME280;26418;50.070;8.436;2022-07-22T05:54:54;100407.44;;;18.93;68.18
40730;BME280;26418;50.070;8.436;2022-07-22T05:57:20;100415.16;;;19.03;67.75
40730;BME280;26418;50.070;8.436;2022-07-22T05:59:45;100408.31;;;19.09;67.25
40730;BME280;26418;50.070;8.436;2022-07-22T06:02:10;100400.84;;;19.22;66.76
40730;BME280;26418;50.070;8.436;2022-07-22T06:04:36;100399.91;;;19.30;66.56
40730;BME280;26418;50.070;8.436;2022-07-22T06:07:01;100392.66;;;19.38;66.38
40730;BME280;26418;50.070;8.436;2022-07-22T06:09:27;100394.34;;;19.55;65.64
40730;BME280;26418;50.070;8.436;2022-07-22T06:11:52;100393.28;;;19.60;64.89
40730;BME280;26418;50.070;8.436;2022-07-22T06:14:18;100392.00;;;19.57;64.80
40730;BME280;26418;50.070;8.436;2022-07-22T06:16:43;100398.69;;;19.72;64.92
40730;BME280;26418;50.070;8.436;2022-07-22T06:19:09;100398.44;;;19.77;64.23
40730;BME280;26418;50.070;8.436;2022-07-22T06:21:34;100396.13;;;19.92;64.76
40730;BME280;26418;50.070;8.436;2022-07-22T06:24:01;100398.69;;;20.17;64.43
40730;BME280;26418;50.070;8.436;2022-07-22T06:26:26;100395.31;;;20.39;64.33
40730;BME280;26418;50.070;8.436;2022-07-22T06:28:52;100395.03;;;20.61;63.17
40730;BME280;26418;50.070;8.436;2022-07-22T06:31:17;100390.41;;;20.81;62.00
40730;BME280;26418;50.070;8.436;2022-07-22T06:33:43;100395.81;;;20.93;61.56
40730;BME280;26418;50.070;8.436;2022-07-22T06:36:08;100404.72;;;21.06;60.94
40730;BME280;26418;50.070;8.436;2022-07-22T06:38:34;100393.19;;;21.20;61.24
40730;BME280;26418;50.070;8.436;2022-07-22T06:40:59;100395.91;;;21.36;60.78
40730;BME280;26418;50.070;8.436;2022-07-22T06:43:24;100399.09;;;21.58;60.79
40730;BME280;26418;50.070;8.436;2022-07-22T06:45:51;100402.13;;;21.72;60.11
40730;BME280;26418;50.070;8.436;2022-07-22T06:48:17;100398.03;;;21.86;59.29
40730;BME280;26418;50.070;8.436;2022-07-22T06:50:42;100410.00;;;21.93;59.00
40730;BME280;26418;50.070;8.436;2022-07-22T06:53:07;100405.03;;;22.03;59.12
40730;BME280;26418;50.070;8.436;2022-07-22T06:55:33;100390.53;;;22.06;58.70
40730;BME280;26418;50.070;8.436;2022-07-22T06:57:58;100403.75;;;22.20;58.33
40730;BME280;26418;50.070;8.436;2022-07-22T07:00:25;100394.44;;;22.28;58.22
40730;BME280;26418;50.070;8.436;2022-07-22T07:02:50;100391.63;;;22.48;58.06
40730;BME280;26418;50.070;8.436;2022-07-22T07:05:16;100389.81;;;22.59;57.13
40730;BME280;26418;50.070;8.436;2022-07-22T07:07:41;100388.88;;;22.74;56.82
40730;BME280;26418;50.070;8.436;2022-07-22T07:10:07;100379.63;;;22.90;56.08
40730;BME280;26418;50.070;8.436;2022-07-22T07:12:35;100394.13;;;23.14;55.43
40730;BME280;26418;50.070;8.436;2022-07-22T07:15:00;100378.22;;;23.34;54.64
40730;BME280;26418;50.070;8.436;2022-07-22T07:17:25;100372.94;;;23.55;53.37
40730;BME280;26418;50.070;8.436;2022-07-22T07:19:51;100382.50;;;23.62;52.82
40730;BME280;26418;50.070;8.436;2022-07-22T07:22:16;100373.28;;;23.50;52.79
40730;BME280;26418;50.070;8.436;2022-07-22T07:24:42;100372.00;;;23.41;53.56
40730;BME280;26418;50.070;8.436;2022-07-22T07:27:07;100362.59;;;23.45;53.54
40730;BME280;26418;50.070;8.436;2022-07-22T07:29:33;100361.41;;;23.46;53.13
40730;BME280;26418;50.070;8.436;2022-07-22T07:31:58;100369.44;;;23.59;52.97
40730;BME280;26418;50.070;8.436;2022-07-22T07:34:23;100367.91;;;23.65;53.08
40730;BME280;26418;50.070;8.436;2022-07-22T07:36:49;100360.59;;;23.42;52.68
40730;BME280;26418;50.070;8.436;2022-07-22T07:39:16;100362.03;;;23.29;52.95
40730;BME280;26418;50.070;8.436;2022-07-22T07:41:41;100359.81;;;23.11;54.04
40730;BME280;26418;50.070;8.436;2022-07-22T07:44:07;100358.56;;;23.08;53.99
40730;BME280;26418;50.070;8.436;2022-07-22T07:46:32;100355.66;;;23.24;53.88
40730;BME280;26418;50.070;8.436;2022-07-22T07:48:58;100354.28;;;23.42;53.53
40730;BME280;26418;50.070;8.436;2022-07-22T07:51:23;100353.34;;;23.68;52.92
40730;BME280;26418;50.070;8.436;2022-07-22T07:53:51;100354.09;;;24.06;52.31
40730;BME280;26418;50.070;8.436;2022-07-22T07:56:17;100347.94;;;24.24;50.60
40730;BME280;26418;50.070;8.436;2022-07-22T07:58:53;100348.28;;;24.15;51.08
40730;BME280;26418;50.070;8.436;2022-07-22T08:01:19;100352.63;;;24.16;51.73
40730;BME280;26418;50.070;8.436;2022-07-22T08:03:44;100349.19;;;24.30;51.12
40730;BME280;26418;50.070;8.436;2022-07-22T08:06:09;100359.88;;;24.39;50.79
40730;BME280;26418;50.070;8.436;2022-07-22T08:08:35;100339.66;;;24.27;50.42
40730;BME280;26418;50.070;8.436;2022-07-22T08:11:01;100352.22;;;24.17;51.20
40730;BME280;26418;50.070;8.436;2022-07-22T08:13:26;100355.22;;;23.98;51.97
40730;BME280;26418;50.070;8.436;2022-07-22T08:15:52;100355.78;;;23.77;52.07
40730;BME280;26418;50.070;8.436;2022-07-22T08:18:18;100351.72;;;23.63;52.21
40730;BME280;26418;50.070;8.436;2022-07-22T08:20:43;100348.69;;;23.38;53.00
40730;BME280;26418;50.070;8.436;2022-07-22T08:23:09;100355.75;;;23.35;53.27
40730;BME280;26418;50.070;8.436;2022-07-22T08:25:34;100346.91;;;23.57;53.10
40730;BME280;26418;50.070;8.436;2022-07-22T08:28:01;100352.63;;;23.75;52.37
40730;BME280;26418;50.070;8.436;2022-07-22T08:30:27;100339.97;;;24.11;51.33
40730;BME280;26418;50.070;8.436;2022-07-22T08:32:53;100348.06;;;24.38;50.54
40730;BME280;26418;50.070;8.436;2022-07-22T08:35:22;100339.78;;;24.45;50.24
40730;BME280;26418;50.070;8.436;2022-07-22T08:37:48;100331.38;;;24.31;50.76
40730;BME280;26418;50.070;8.436;2022-07-22T08:40:15;100330.91;;;24.18;50.87
40730;BME280;26418;50.070;8.436;2022-07-22T08:42:42;100328.13;;;24.14;51.06
40730;BME280;26418;50.070;8.436;2022-07-22T08:45:09;100325.44;;;24.25;51.12
40730;BME280;26418;50.070;8.436;2022-07-22T08:47:34;100316.88;;;24.45;50.54
40730;BME280;26418;50.070;8.436;2022-07-22T08:50:00;100316.69;;;24.79;50.04
40730;BME280;26418;50.070;8.436;2022-07-22T08:52:26;100308.88;;;25.03;48.77
40730;BME280;26418;50.070;8.436;2022-07-22T08:54:51;100315.28;;;25.25;48.22
40730;BME280;26418;50.070;8.436;2022-07-22T08:57:17;100313.38;;;25.51;47.44
40730;BME280;26418;50.070;8.436;2022-07-22T08:59:50;100315.78;;;25.63;47.08
40730;BME280;26418;50.070;8.436;2022-07-22T09:02:16;100317.34;;;25.61;46.79
40730;BME280;26418;50.070;8.436;2022-07-22T09:05:02;100314.97;;;25.66;46.99
40730;BME280;26418;50.070;8.436;2022-07-22T09:07:33;100311.81;;;25.86;46.39
40730;BME280;26418;50.070;8.436;2022-07-22T09:10:07;100308.28;;;25.96;46.08
40730;BME280;26418;50.070;8.436;2022-07-22T09:12:34;100313.81;;;26.00;45.61
40730;BME280;26418;50.070;8.436;2022-07-22T09:15:02;100310.63;;;26.05;45.56
40730;BME280;26418;50.070;8.436;2022-07-22T09:17:34;100304.69;;;26.25;45.60
40730;BME280;26418;50.070;8.436;2022-07-22T09:20:16;100315.34;;;26.48;45.33
40730;BME280;26418;50.070;8.436;2022-07-22T09:22:45;100310.53;;;26.77;43.82
40730;BME280;26418;50.070;8.436;2022-07-22T09:27:44;100307.38;;;27.53;42.97
40730;BME280;26418;50.070;8.436;2022-07-22T09:30:17;100301.63;;;27.79;41.44
40730;BME280;26418;50.070;8.436;2022-07-22T09:32:44;100303.09;;;27.94;41.81
40730;BME280;26418;50.070;8.436;2022-07-22T09:35:10;100302.94;;;28.12;41.07
40730;BME280;26418;50.070;8.436;2022-07-22T09:38:00;100301.75;;;28.13;40.55
40730;BME280;26418;50.070;8.436;2022-07-22T09:40:31;100303.47;;;28.38;40.06
40730;BME280;26418;50.070;8.436;2022-07-22T09:43:00;100299.44;;;28.43;40.16
40730;BME280;26418;50.070;8.436;2022-07-22T09:45:29;100292.72;;;28.40;40.15
40730;BME280;26418;50.070;8.436;2022-07-22T09:47:56;100286.69;;;28.45;40.22
40730;BME280;26418;50.070;8.436;2022-07-22T09:50:34;100289.44;;;28.49;39.96
40730;BME280;26418;50.070;8.436;2022-07-22T09:53:00;100291.53;;;28.76;39.26
40730;BME280;26418;50.070;8.436;2022-07-22T09:55:28;100284.81;;;28.73;38.89
40730;BME280;26418;50.070;8.436;2022-07-22T09:57:55;100282.44;;;28.68;39.28
40730;BME280;26418;50.070;8.436;2022-07-22T10:00:24;100268.69;;;28.57;39.24
40730;BME280;26418;50.070;8.436;2022-07-22T10:03:00;100280.88;;;28.67;39.11
40730;BME280;26418;50.070;8.436;2022-07-22T10:05:31;100269.22;;;28.79;39.43
40730;BME280;26418;50.070;8.436;2022-07-22T10:07:57;100271.94;;;29.14;38.78
40730;BME280;26418;50.070;8.436;2022-07-22T10:10:24;100271.03;;;29.75;38.34
40730;BME280;26418;50.070;8.436;2022-07-22T10:15:39;100258.88;;;31.10;35.84
40730;BME280;26418;50.070;8.436;2022-07-22T10:18:14;100261.78;;;31.56;34.15
40730;BME280;26418;50.070;8.436;2022-07-22T10:20:40;100248.56;;;31.90;33.53
40730;BME280;26418;50.070;8.436;2022-07-22T10:23:07;100262.50;;;32.23;33.42
40730;BME280;26418;50.070;8.436;2022-07-22T10:28:33;100254.34;;;32.84;32.16
40730;BME280;26418;50.070;8.436;2022-07-22T10:33:45;100249.78;;;33.03;30.82
40730;BME280;26418;50.070;8.436;2022-07-22T10:36:11;100244.63;;;32.88;31.10
40730;BME280;26418;50.070;8.436;2022-07-22T10:38:37;100238.78;;;32.83;31.56
40730;BME280;26418;50.070;8.436;2022-07-22T10:41:06;100243.72;;;32.91;31.58
40730;BME280;26418;50.070;8.436;2022-07-22T10:46:08;100242.94;;;33.43;30.49
40730;BME280;26418;50.070;8.436;2022-07-22T10:51:11;100218.09;;;33.67;30.77
40730;BME280;26418;50.070;8.436;2022-07-22T10:53:58;100229.56;;;33.95;30.26
40730;BME280;26418;50.070;8.436;2022-07-22T10:56:32;100215.53;;;33.95;29.58
40730;BME280;26418;50.070;8.436;2022-07-22T10:59:16;100223.56;;;34.06;29.13
40730;BME280;26418;50.070;8.436;2022-07-22T11:01:43;100215.03;;;34.09;29.48
40730;BME280;26418;50.070;8.436;2022-07-22T11:04:15;100217.22;;;34.14;29.45
40730;BME280;26418;50.070;8.436;2022-07-22T11:06:41;100208.56;;;34.44;29.12
40730;BME280;26418;50.070;8.436;2022-07-22T11:09:11;100206.50;;;34.76;27.90
40730;BME280;26418;50.070;8.436;2022-07-22T11:11:50;100207.03;;;34.52;28.08
40730;BME280;26418;50.070;8.436;2022-07-22T11:14:33;100194.06;;;34.45;28.61
40730;BME280;26418;50.070;8.436;2022-07-22T11:17:10;100202.34;;;34.49;28.83
40730;BME280;26418;50.070;8.436;2022-07-22T11:19:38;100195.88;;;34.39;28.34
40730;BME280;26418;50.070;8.436;2022-07-22T11:24:31;100185.66;;;34.01;28.44
40730;BME280;26418;50.070;8.436;2022-07-22T11:26:58;100183.34;;;34.31;28.59
40730;BME280;26418;50.070;8.436;2022-07-22T11:29:32;100180.50;;;34.53;27.86
40730;BME280;26418;50.070;8.436;2022-07-22T11:32:00;100176.31;;;34.58;27.93
40730;BME280;26418;50.070;8.436;2022-07-22T11:34:27;100178.00;;;34.87;27.51
40730;BME280;26418;50.070;8.436;2022-07-22T11:36:54;100173.09;;;35.09;27.00
40730;BME280;26418;50.070;8.436;2022-07-22T11:39:22;100166.28;;;35.29;26.33
40730;BME280;26418;50.070;8.436;2022-07-22T11:41:49;100154.22;;;35.38;25.89
40730;BME280;26418;50.070;8.436;2022-07-22T11:44:20;100159.91;;;35.84;25.78
40730;BME280;26418;50.070;8.436;2022-07-22T11:46:46;100153.72;;;36.23;25.31
40730;BME280;26418;50.070;8.436;2022-07-22T11:49:17;100166.25;;;36.22;24.55
40730;BME280;26418;50.070;8.436;2022-07-22T11:51:43;100150.50;;;36.58;24.40
40730;BME280;26418;50.070;8.436;2022-07-22T11:54:09;100157.34;;;36.66;22.79
40730;BME280;26418;50.070;8.436;2022-07-22T11:56:36;100159.72;;;36.07;23.61
40730;BME280;26418;50.070;8.436;2022-07-22T11:59:02;100148.47;;;35.41;24.09
40730;BME280;26418;50.070;8.436;2022-07-22T12:01:31;100148.97;;;35.40;24.81
40730;BME280;26418;50.070;8.436;2022-07-22T12:04:10;100145.84;;;35.56;23.14
40730;BME280;26418;50.070;8.436;2022-07-22T12:06:38;100145.34;;;35.86;24.09
40730;BME280;26418;50.070;8.436;2022-07-22T12:09:07;100151.56;;;36.18;23.71
40730;BME280;26418;50.070;8.436;2022-07-22T12:11:34;100147.81;;;36.64;23.35
40730;BME280;26418;50.070;8.436;2022-07-22T12:14:14;100141.47;;;37.12;22.16
40730;BME280;26418;50.070;8.436;2022-07-22T12:16:42;100139.91;;;37.11;22.00
40730;BME280;26418;50.070;8.436;2022-07-22T12:19:12;100137.38;;;36.89;22.06
40730;BME280;26418;50.070;8.436;2022-07-22T12:21:55;100141.00;;;36.89;22.38
40730;BME280;26418;50.070;8.436;2022-07-22T12:24:34;100133.72;;;36.97;22.48
40730;BME280;26418;50.070;8.436;2022-07-22T12:27:05;100130.25;;;37.03;21.81
40730;BME280;26418;50.070;8.436;2022-07-22T12:29:44;100130.13;;;37.21;21.67
40730;BME280;26418;50.070;8.436;2022-07-22T12:34:47;100121.06;;;37.41;21.17
40730;BME280;26418;50.070;8.436;2022-07-22T12:40:05;100117.41;;;38.10;20.45
40730;BME280;26418;50.070;8.436;2022-07-22T12:42:40;100118.88;;;38.35;20.93
40730;BME280;26418;50.070;8.436;2022-07-22T12:45:10;100112.38;;;37.99;20.83
40730;BME280;26418;50.070;8.436;2022-07-22T12:47:51;100107.97;;;37.98;21.37
40730;BME280;26418;50.070;8.436;2022-07-22T12:55:25;100098.50;;;37.71;21.92
40730;BME280;26418;50.070;8.436;2022-07-22T12:57:51;100087.13;;;37.66;21.58
40730;BME280;26418;50.070;8.436;2022-07-22T13:00:22;100086.72;;;37.43;21.79
40730;BME280;26418;50.070;8.436;2022-07-22T13:02:48;100089.03;;;37.05;21.99
40730;BME280;26418;50.070;8.436;2022-07-22T13:05:14;100085.38;;;36.56;22.55
40730;BME280;26418;50.070;8.436;2022-07-22T13:07:40;100078.47;;;36.24;22.87
40730;BME280;26418;50.070;8.436;2022-07-22T13:10:06;100077.50;;;35.93;22.79
40730;BME280;26418;50.070;8.436;2022-07-22T13:12:32;100069.53;;;35.26;23.06
40730;BME280;26418;50.070;8.436;2022-07-22T13:14:57;100077.06;;;34.52;24.46
40730;BME280;26418;50.070;8.436;2022-07-22T13:17:23;100068.19;;;34.22;25.30
40730;BME280;26418;50.070;8.436;2022-07-22T13:19:48;100075.06;;;34.30;25.93
40730;BME280;26418;50.070;8.436;2022-07-22T13:22:13;100072.34;;;34.39;25.63
40730;BME280;26418;50.070;8.436;2022-07-22T13:24:39;100063.91;;;34.39;25.25
40730;BME280;26418;50.070;8.436;2022-07-22T13:27:04;100068.56;;;34.33;25.58
40730;BME280;26418;50.070;8.436;2022-07-22T13:29:30;100062.75;;;34.27;25.91
40730;BME280;26418;50.070;8.436;2022-07-22T13:31:55;100072.06;;;34.15;26.10
40730;BME280;26418;50.070;8.436;2022-07-22T13:34:21;100062.41;;;34.16;26.19